Time;durP1;ratioP1;P1;durP2;ratioP2;P2;SDS_P1;SDS_P2;PMS_P1;PMS_P2;Temp;Humidity;BMP_temperature;BMP_pressure;BME280_temperature;BME280_humidity;BME280_pressure;Samples;Min_cycle;Max_cycle;Signal;HPM_P1;HPM_P2
2022/01/20 00:03:17;;;;;;;28.52;4.75;;;;;;;2.80;93.96;102491.41;5083885;28;20164;-81
2022/01/20 00:08:55;;;;;;;25.35;4.72;;;;;;;2.74;93.84;102489.22;5081192;28;20020;-80
2022/01/20 00:27:32;;;;;;;29.55;5.20;;;;;;;2.65;94.13;102498.75;5071043;28;20039;-80
2022/01/20 00:30:20;;;;;;;28.05;6.05;;;;;;;2.61;94.06;102501.06;5080295;28;20020;-80
2022/01/20 00:33:14;;;;;;;28.02;5.10;;;;;;;2.59;94.21;102510.34;5081544;28;20024;-80
2022/01/20 00:38:10;;;;;;;26.40;4.30;;;;;;;2.58;94.11;102508.53;5081275;28;20044;-80
2022/01/20 00:40:36;;;;;;;28.30;5.10;;;;;;;2.57;94.21;102511.00;5084498;28;20027;-80
2022/01/20 00:43:01;;;;;;;21.40;4.32;;;;;;;2.57;95.06;102511.00;5082087;28;20048;-80
2022/01/20 00:45:26;;;;;;;21.48;3.92;;;;;;;2.55;94.74;102515.09;5085053;28;20170;-80
2022/01/20 00:47:52;;;;;;;31.73;6.07;;;;;;;2.55;94.87;102508.28;5081717;28;20048;-80
2022/01/20 00:50:17;;;;;;;29.88;4.68;;;;;;;2.53;94.22;102509.81;5083359;28;20330;-80
2022/01/20 00:52:42;;;;;;;29.20;5.47;;;;;;;2.50;94.61;102491.56;5079155;28;20021;-80
2022/01/20 00:55:08;;;;;;;35.20;5.00;;;;;;;2.48;94.67;102495.69;5084781;28;20294;-80
2022/01/20 00:57:33;;;;;;;35.55;5.00;;;;;;;2.47;94.59;102496.47;5081937;28;20024;-80
2022/01/20 00:59:59;;;;;;;29.67;4.55;;;;;;;2.47;95.15;102504.19;5083037;28;20048;-80
2022/01/20 01:02:24;;;;;;;25.55;4.75;;;;;;;2.49;95.45;102518.09;5076354;28;20020;-80
2022/01/20 01:04:50;;;;;;;25.70;4.25;;;;;;;2.50;95.41;102525.00;5082514;28;20076;-80
2022/01/20 01:09:41;;;;;;;23.58;4.90;;;;;;;2.54;95.49;102521.94;5083588;28;20082;-80
2022/01/20 01:12:11;;;;;;;28.90;4.60;;;;;;;2.53;95.64;102529.53;5080847;28;20042;-80
2022/01/20 01:14:41;;;;;;;23.15;4.38;;;;;;;2.54;95.67;102526.19;5080685;28;20044;-80
2022/01/20 01:24:45;;;;;;;20.60;3.45;;;;;;;2.57;95.15;102523.88;5079632;28;20024;-80
2022/01/20 01:27:12;;;;;;;22.55;3.65;;;;;;;2.57;95.06;102531.56;5082116;28;20079;-80
2022/01/20 01:32:27;;;;;;;17.58;3.50;;;;;;;2.55;94.92;102527.97;5078234;28;20088;-80
2022/01/20 01:34:53;;;;;;;20.27;3.20;;;;;;;2.54;95.03;102528.75;5078612;28;20130;-81
2022/01/20 01:39:50;;;;;;;15.00;2.85;;;;;;;2.55;94.77;102525.38;5084128;28;20178;-80
2022/01/20 01:42:21;;;;;;;22.02;2.83;;;;;;;2.56;94.77;102529.78;5087840;28;20028;-80
2022/01/20 01:44:46;;;;;;;23.13;2.83;;;;;;;2.56;94.94;102533.25;5086420;28;20027;-80
2022/01/20 01:47:11;;;;;;;19.88;3.38;;;;;;;2.58;95.51;102529.13;5081848;28;20016;-80
2022/01/20 01:49:37;;;;;;;17.25;2.92;;;;;;;2.61;95.56;102531.97;5083702;28;20217;-80
2022/01/20 01:52:02;;;;;;;25.40;3.50;;;;;;;2.63;95.19;102520.91;5082616;28;20080;-80
2022/01/20 01:54:28;;;;;;;18.60;2.88;;;;;;;2.66;95.00;102527.19;5084470;28;20259;-80
2022/01/20 01:56:53;;;;;;;20.00;3.28;;;;;;;2.66;94.89;102532.34;5081265;28;20032;-80
2022/01/20 01:59:19;;;;;;;25.50;4.70;;;;;;;2.67;95.07;102538.41;5082735;28;20275;-80
2022/01/20 02:01:44;;;;;;;14.63;2.72;;;;;;;2.67;95.00;102538.41;5081583;28;20075;-80
2022/01/20 02:04:17;;;;;;;17.77;3.25;;;;;;;2.67;95.37;102536.72;5082770;28;20027;-80
2022/01/20 02:07:03;;;;;;;20.92;3.03;;;;;;;2.67;95.51;102521.28;5080590;28;20128;-81
2022/01/20 02:18:12;;;;;;;19.60;2.97;;;;;;;2.74;95.72;102528.72;5067877;28;20168;-80
2022/01/20 02:20:38;;;;;;;17.00;3.17;;;;;;;2.78;95.93;102537.59;5080584;28;20050;-80
2022/01/20 02:23:03;;;;;;;22.52;4.25;;;;;;;2.79;95.68;102539.41;5079904;28;20055;-80
2022/01/20 02:25:31;;;;;;;20.08;3.92;;;;;;;2.81;94.92;102545.59;5075901;28;20251;-81
2022/01/20 02:27:59;;;;;;;21.75;3.30;;;;;;;2.81;95.56;102544.66;5080589;28;20214;-80
2022/01/20 02:30:27;;;;;;;13.37;2.57;;;;;;;2.83;95.43;102551.75;5077651;28;20008;-80
2022/01/20 02:33:01;;;;;;;15.93;2.72;;;;;;;2.87;95.55;102542.59;5077788;28;20019;-80
2022/01/20 02:35:32;;;;;;;14.82;2.42;;;;;;;2.88;95.56;102535.03;5076326;28;20160;-79
2022/01/20 02:38:04;;;;;;;21.10;2.33;;;;;;;2.90;95.69;102533.47;5074429;28;20020;-80
2022/01/20 02:44:50;;;;;;;18.05;2.35;;;;;;;2.91;95.64;102524.97;5080948;28;20032;-80
2022/01/20 02:46:07;;;;;;;12.40;2.65;;;;;;;2.95;96.12;102511.59;5078719;28;20054;-80
2022/01/20 02:48:33;;;;;;;17.02;2.85;;;;;;;2.98;95.71;102512.59;5081119;28;20012;-79
2022/01/20 02:50:59;;;;;;;14.80;2.20;;;;;;;2.99;95.82;102523.00;5079399;28;20012;-80
2022/01/20 02:53:24;;;;;;;14.10;2.28;;;;;;;3.01;96.39;102525.72;5078679;28;20024;-80
2022/01/20 02:55:51;;;;;;;17.88;2.80;;;;;;;3.02;95.95;102527.53;5083178;28;20020;-80
2022/01/20 02:58:16;;;;;;;12.73;1.60;;;;;;;3.02;95.67;102520.69;5081468;28;20029;-80
2022/01/20 03:00:42;;;;;;;14.57;1.85;;;;;;;3.03;95.71;102517.34;5076671;28;20030;-80
2022/01/20 03:03:07;;;;;;;16.50;2.15;;;;;;;3.04;95.73;102518.22;5076971;28;20015;-80
2022/01/20 03:05:33;;;;;;;8.73;2.15;;;;;;;3.06;95.82;102511.56;5081370;28;20167;-80
2022/01/20 03:08:00;;;;;;;15.52;2.95;;;;;;;3.05;95.83;102513.19;5080157;28;20075;-80
2022/01/20 03:10:26;;;;;;;17.45;2.35;;;;;;;3.04;96.00;102506.28;5080088;28;20053;-80
2022/01/20 03:12:51;;;;;;;10.45;2.33;;;;;;;3.06;95.86;102508.97;5080249;28;20075;-80
2022/01/20 03:15:17;;;;;;;19.88;2.83;;;;;;;3.06;96.28;102514.13;5080668;28;20279;-80
2022/01/20 03:17:42;;;;;;;10.90;2.42;;;;;;;3.06;95.82;102520.16;5080858;28;20021;-80
2022/01/20 03:20:07;;;;;;;16.60;2.17;;;;;;;3.05;95.67;102514.88;5076232;28;20092;-80
2022/01/20 03:22:33;;;;;;;14.25;2.38;;;;;;;3.02;95.35;102502.66;5079526;28;20036;-80
2022/01/20 03:24:58;;;;;;;12.88;2.63;;;;;;;3.02;95.40;102496.63;5078413;28;20314;-80
2022/01/20 03:27:24;;;;;;;12.23;2.67;;;;;;;3.00;95.12;102498.16;5080881;28;20134;-81
2022/01/20 03:29:49;;;;;;;14.35;2.17;;;;;;;2.98;95.36;102499.72;5079845;28;20008;-80
2022/01/20 03:32:15;;;;;;;16.08;2.78;;;;;;;2.95;95.34;102493.56;5076611;28;20028;-80
2022/01/20 03:34:40;;;;;;;19.20;3.42;;;;;;;2.93;94.74;102495.09;5076043;28;20013;-80
2022/01/20 03:37:06;;;;;;;13.13;2.70;;;;;;;2.92;95.13;102494.97;5082121;28;20100;-79
2022/01/20 03:39:32;;;;;;;13.45;2.80;;;;;;;2.89;94.81;102493.03;5083103;28;20020;-80
2022/01/20 03:41:57;;;;;;;13.25;3.10;;;;;;;2.88;95.46;102493.84;5082501;28;20035;-80
2022/01/20 03:44:23;;;;;;;14.23;2.83;;;;;;;2.88;95.08;102504.13;5081429;28;20016;-80
2022/01/20 03:46:48;;;;;;;12.90;2.58;;;;;;;2.89;94.99;102505.91;5082603;28;20263;-80
2022/01/20 03:49:34;;;;;;;14.10;3.15;;;;;;;2.90;95.27;102496.53;5072256;28;20023;-80
2022/01/20 03:51:59;;;;;;;15.10;3.00;;;;;;;2.91;94.96;102501.81;5073636;28;20017;-81
2022/01/20 03:54:25;;;;;;;17.52;3.15;;;;;;;2.91;95.21;102499.22;5079263;28;20008;-81
2022/01/20 03:56:50;;;;;;;14.02;2.67;;;;;;;2.87;95.03;102494.59;5083416;28;20096;-80
2022/01/20 03:59:16;;;;;;;17.08;3.13;;;;;;;2.86;94.72;102491.91;5084491;28;20034;-80
2022/01/20 04:01:41;;;;;;;16.63;2.50;;;;;;;2.85;95.11;102492.66;5082812;28;20039;-80
2022/01/20 04:04:07;;;;;;;13.18;2.13;;;;;;;2.85;95.02;102492.66;5084100;28;20179;-80
2022/01/20 04:06:32;;;;;;;18.10;2.72;;;;;;;2.85;94.86;102495.25;5083966;28;20166;-80
2022/01/20 04:08:58;;;;;;;18.27;2.90;;;;;;;2.84;94.49;102490.84;5082988;28;20020;-80
2022/01/20 04:11:26;;;;;;;13.43;2.70;;;;;;;2.81;94.47;102501.84;5077779;28;20024;-80
2022/01/20 04:13:52;;;;;;;14.43;2.80;;;;;;;2.81;94.36;102521.50;5084064;28;20043;-80
2022/01/20 04:16:34;;;;;;;14.95;3.40;;;;;;;2.80;94.39;102512.00;5084476;28;20080;-80
2022/01/20 04:19:07;;;;;;;21.80;3.08;;;;;;;2.82;94.72;102519.06;5084640;28;20056;-80
2022/01/20 04:21:32;;;;;;;18.75;2.95;;;;;;;2.83;94.50;102520.84;5078627;28;20282;-80
2022/01/20 04:24:00;;;;;;;16.30;3.22;;;;;;;2.85;94.43;102526.13;5082225;28;20240;-80
2022/01/20 04:26:26;;;;;;;21.38;3.05;;;;;;;2.86;94.51;102531.41;5080070;28;20024;-80
2022/01/20 04:28:56;;;;;;;21.50;3.63;;;;;;;2.88;95.55;102550.47;5083740;28;20286;-80
2022/01/20 04:31:25;;;;;;;20.42;2.35;;;;;;;2.91;95.68;102560.09;5082121;28;20008;-80
2022/01/20 04:33:51;;;;;;;;;;;;;;;2.94;95.71;102550.03;5083479;28;20031;-81
2022/01/20 04:36:16;;;;;;;18.10;2.75;;;;;;;2.94;95.92;102552.63;5083477;28;20118;-80
2022/01/20 04:38:42;;;;;;;15.00;2.17;;;;;;;2.94;96.32;102539.75;5083188;28;20058;-81
2022/01/20 04:41:07;;;;;;;14.23;2.50;;;;;;;2.95;96.12;102541.56;5083135;28;20083;-81
2022/01/20 04:43:32;;;;;;;15.90;2.67;;;;;;;2.93;96.19;102528.56;5081314;28;20043;-81
2022/01/20 04:46:44;;;;;;;14.00;2.85;;;;;;;2.92;96.12;102537.06;5076625;28;20319;-81
2022/01/20 04:59:27;;;;;;;17.27;2.28;;;;;;;2.83;95.60;102556.91;5076006;28;20050;-80
2022/01/20 05:01:53;;;;;;;16.83;2.35;;;;;;;2.83;95.76;102562.06;5082034;28;20028;-80
2022/01/20 05:04:18;;;;;;;17.20;2.50;;;;;;;2.85;95.63;102560.50;5080116;28;20066;-81
2022/01/20 05:06:45;;;;;;;17.48;2.33;;;;;;;2.87;96.22;102576.06;5084011;28;20294;-81
2022/01/20 05:09:17;;;;;;;18.40;2.55;;;;;;;2.87;96.03;102576.97;5083867;28;20286;-81
2022/01/20 05:11:46;;;;;;;12.50;2.28;;;;;;;2.90;95.70;102579.81;5085463;28;20259;-80
2022/01/20 05:14:11;;;;;;;16.35;2.15;;;;;;;2.90;95.72;102578.91;5080200;28;20025;-81
2022/01/20 05:16:36;;;;;;;17.33;2.38;;;;;;;2.92;95.81;102570.53;5078276;28;20028;-81
2022/01/20 05:19:02;;;;;;;12.10;1.88;;;;;;;2.92;95.83;102577.34;5083777;28;20017;-81
2022/01/20 05:21:27;;;;;;;14.57;2.45;;;;;;;2.92;96.27;102585.97;5073316;28;20195;-81
2022/01/20 05:23:52;;;;;;;17.95;2.58;;;;;;;2.93;95.89;102598.06;5081226;28;20259;-81
2022/01/20 05:26:17;;;;;;;12.05;2.08;;;;;;;2.93;95.82;102595.50;5082068;28;20081;-81
2022/01/20 05:28:43;;;;;;;14.35;1.73;;;;;;;2.94;96.19;102599.88;5083315;28;20017;-80
2022/01/20 05:31:08;;;;;;;11.68;2.15;;;;;;;2.95;96.03;102596.56;5077811;28;20024;-80
2022/01/20 05:33:33;;;;;;;11.90;1.52;;;;;;;2.96;96.27;102600.91;5083433;28;20067;-80
2022/01/20 05:35:59;;;;;;;18.65;2.20;;;;;;;2.98;96.30;102605.28;5080253;28;20013;-80
2022/01/20 05:38:24;;;;;;;16.45;2.05;;;;;;;2.99;96.30;102607.09;5078459;28;20021;-81
2022/01/20 05:40:49;;;;;;;15.13;2.47;;;;;;;3.01;96.80;102613.25;5084492;28;20020;-80
2022/01/20 05:43:15;;;;;;;17.10;2.08;;;;;;;3.00;96.73;102603.72;5082881;28;20020;-81
2022/01/20 05:45:40;;;;;;;22.95;2.70;;;;;;;2.99;96.85;102612.25;5079356;28;20119;-81
2022/01/20 05:48:12;;;;;;;13.55;2.13;;;;;;;2.99;96.73;102626.00;5076637;28;20393;-81
2022/01/20 05:50:38;;;;;;;16.10;2.38;;;;;;;3.00;96.25;102634.63;5076961;28;20095;-81
2022/01/20 05:53:05;;;;;;;8.30;1.70;;;;;;;2.98;96.20;102634.50;5078920;28;20017;-81
2022/01/20 05:55:31;;;;;;;16.63;2.70;;;;;;;2.97;96.07;102640.44;5081185;28;20983;-81
2022/01/20 05:57:56;;;;;;;15.95;2.08;;;;;;;2.97;95.98;102658.47;5084111;28;20297;-80
2022/01/20 06:00:23;;;;;;;13.35;2.40;;;;;;;2.95;96.38;102658.34;5073581;28;20059;-81
2022/01/20 06:05:33;;;;;;;11.95;2.08;;;;;;;2.93;96.02;102652.16;5080403;28;20061;-80
2022/01/20 06:07:59;;;;;;;8.95;1.80;;;;;;;2.92;95.67;102654.59;5081746;28;20040;-80
2022/01/20 06:10:24;;;;;;;11.02;1.80;;;;;;;2.91;95.58;102664.00;5082137;28;20024;-81
2022/01/20 06:12:49;;;;;;;11.35;2.45;;;;;;;2.91;95.67;102664.00;5079635;28;20027;-81
2022/01/20 06:15:15;;;;;;;14.55;2.58;;;;;;;2.90;95.32;102663.88;5076333;28;20051;-81
2022/01/20 06:17:41;;;;;;;15.35;2.15;;;;;;;2.89;95.04;102668.09;5081777;28;20262;-80
2022/01/20 06:20:08;;;;;;;19.58;2.40;;;;;;;2.88;95.18;102663.75;5071741;28;20032;-81
2022/01/20 06:22:33;;;;;;;19.85;2.67;;;;;;;2.89;94.69;102673.25;5078493;28;20058;-80
2022/01/20 06:24:58;;;;;;;16.05;3.25;;;;;;;2.88;94.34;102675.69;5078044;28;20020;-81
2022/01/20 06:27:23;;;;;;;18.08;2.28;;;;;;;2.87;94.56;102687.69;5082712;28;20164;-81
2022/01/20 06:29:49;;;;;;;15.40;2.30;;;;;;;2.86;94.21;102685.88;5074714;28;20225;-81
2022/01/20 06:32:14;;;;;;;15.35;3.25;;;;;;;2.86;94.33;102688.44;5078067;28;20156;-80
2022/01/20 06:34:39;;;;;;;19.77;2.50;;;;;;;2.86;93.86;102690.13;5083364;28;20024;-80
2022/01/20 06:37:05;;;;;;;22.50;3.45;;;;;;;2.86;93.22;102685.88;5081352;28;20027;-80
2022/01/20 06:39:30;;;;;;;18.58;3.00;;;;;;;2.86;92.99;102688.44;5079394;28;20310;-81
2022/01/20 06:41:55;;;;;;;18.17;2.33;;;;;;;2.87;93.04;102692.84;5076580;28;20016;-81
2022/01/20 06:44:21;;;;;;;15.65;2.20;;;;;;;2.87;92.82;102695.41;5080615;28;20087;-80
2022/01/20 06:46:48;;;;;;;21.77;2.50;;;;;;;2.88;91.91;102693.72;5078603;28;20020;-81
2022/01/20 06:49:14;;;;;;;17.98;2.60;;;;;;;2.87;91.51;102700.56;5081003;28;20056;-80
2022/01/20 06:51:39;;;;;;;20.65;2.50;;;;;;;2.86;91.65;102711.63;5069653;28;20013;-80
2022/01/20 06:54:05;;;;;;;18.75;2.53;;;;;;;2.86;91.36;102713.31;5078628;28;20024;-81
2022/01/20 06:56:31;;;;;;;18.83;2.60;;;;;;;2.84;91.35;102713.19;5081041;28;20008;-80
2022/01/20 06:58:57;;;;;;;19.63;2.70;;;;;;;2.84;91.26;102728.63;5073805;28;20345;-81
2022/01/20 07:01:22;;;;;;;19.92;2.47;;;;;;;2.83;90.27;102725.91;5079595;28;20028;-80
2022/01/20 07:03:47;;;;;;;21.80;2.70;;;;;;;2.81;90.68;102730.00;5071275;28;20092;-81
2022/01/20 07:06:13;;;;;;;23.08;2.83;;;;;;;2.80;90.65;102734.28;5077971;28;20028;-81
2022/01/20 07:08:38;;;;;;;18.45;2.72;;;;;;;2.79;90.48;102745.34;5079426;28;20031;-81
2022/01/20 07:11:03;;;;;;;21.60;2.47;;;;;;;2.78;90.46;102749.59;5081645;28;20025;-81
2022/01/20 07:13:29;;;;;;;23.25;3.83;;;;;;;2.75;90.49;102740.69;5074594;28;20025;-81
2022/01/20 07:15:54;;;;;;;24.25;3.17;;;;;;;2.76;90.17;102750.22;5082891;28;20024;-81
2022/01/20 07:18:19;;;;;;;23.67;3.00;;;;;;;2.76;89.79;102737.34;5079936;28;20385;-81
2022/01/20 07:20:45;;;;;;;23.20;2.75;;;;;;;2.75;89.57;102749.34;5077358;28;20012;-81
2022/01/20 07:23:10;;;;;;;15.48;2.63;;;;;;;2.73;89.93;102750.84;5076705;28;20063;-81
2022/01/20 07:25:35;;;;;;;20.23;3.92;;;;;;;2.73;89.87;102757.69;5077173;28;20079;-80
2022/01/20 07:28:01;;;;;;;18.98;2.65;;;;;;;2.72;89.72;102761.03;5081261;28;20040;-81
2022/01/20 07:30:26;;;;;;;12.77;2.50;;;;;;;2.71;89.51;102756.63;5084684;28;20342;-81
2022/01/20 07:32:51;;;;;;;17.50;3.03;;;;;;;2.70;89.81;102754.84;5081431;28;20058;-81
2022/01/20 07:35:17;;;;;;;15.90;2.13;;;;;;;2.69;88.74;102773.63;5078261;28;20092;-81
2022/01/20 07:37:42;;;;;;;16.83;2.30;;;;;;;2.70;89.39;102770.28;5081718;28;20263;-81
2022/01/20 07:40:08;;;;;;;20.58;2.40;;;;;;;2.69;89.13;102779.66;5086486;28;20015;-81
2022/01/20 07:42:33;;;;;;;17.05;2.60;;;;;;;2.69;88.95;102778.78;5085404;28;20017;-81
2022/01/20 07:44:58;;;;;;;25.58;3.00;;;;;;;2.69;89.24;102781.34;5077598;28;20017;-81
2022/01/20 07:47:24;;;;;;;23.17;3.67;;;;;;;2.68;89.49;102784.69;5084171;28;20013;-80
2022/01/20 07:49:49;;;;;;;19.85;3.22;;;;;;;2.67;89.97;102788.94;5077687;28;20293;-81
2022/01/20 07:52:14;;;;;;;19.45;3.08;;;;;;;2.69;89.32;102789.06;5084202;28;20154;-81
2022/01/20 07:54:40;;;;;;;22.58;3.42;;;;;;;2.67;89.07;102795.78;5084890;28;20024;-81
2022/01/20 07:57:07;;;;;;;22.55;2.65;;;;;;;2.67;89.23;102796.66;5082723;28;20028;-81
2022/01/20 07:59:32;;;;;;;19.40;3.60;;;;;;;2.67;88.76;102800.91;5081519;28;20024;-80
2022/01/20 08:01:58;;;;;;;21.00;2.90;;;;;;;2.67;87.55;102798.34;5084128;28;20017;-80
2022/01/20 08:04:23;;;;;;;23.63;3.22;;;;;;;2.68;87.30;102803.63;5083450;28;20067;-81
2022/01/20 08:06:48;;;;;;;17.45;3.33;;;;;;;2.68;87.04;102792.41;5084746;28;20020;-80
2022/01/20 08:09:14;;;;;;;18.60;2.97;;;;;;;2.67;86.72;102800.91;5083866;28;20036;-81
2022/01/20 08:11:40;;;;;;;14.15;2.13;;;;;;;2.68;86.49;102807.84;5075414;28;20259;-81
2022/01/20 08:14:05;;;;;;;13.80;2.65;;;;;;;2.67;86.92;102804.38;5077043;28;20048;-80
2022/01/20 08:16:31;;;;;;;17.80;2.75;;;;;;;2.68;86.97;102813.00;5077787;28;20023;-80
2022/01/20 08:18:56;;;;;;;22.13;3.40;;;;;;;2.69;87.36;102815.69;5077963;28;20036;-81
2022/01/20 08:21:21;;;;;;;22.67;3.13;;;;;;;2.70;87.63;102826.91;5076076;28;20071;-80
2022/01/20 08:23:47;;;;;;;21.67;3.05;;;;;;;2.70;87.24;102832.06;5081183;28;20017;-81
2022/01/20 08:26:12;;;;;;;23.10;3.45;;;;;;;2.70;87.32;102838.09;5084187;28;20456;-81
2022/01/20 08:28:38;;;;;;;24.85;3.65;;;;;;;2.69;87.41;102830.25;5078857;28;20063;-80
2022/01/20 08:31:03;;;;;;;26.90;3.47;;;;;;;2.69;87.12;102836.28;5081581;28;20168;-81
2022/01/20 08:33:28;;;;;;;17.08;2.65;;;;;;;2.68;87.16;102834.50;5079545;28;20067;-81
2022/01/20 08:35:54;;;;;;;15.70;2.95;;;;;;;2.70;87.39;102837.22;5082650;28;20283;-81
2022/01/20 08:38:20;;;;;;;19.25;2.90;;;;;;;2.72;87.96;102845.97;5085211;28;20035;-80
2022/01/20 08:40:45;;;;;;;24.30;3.45;;;;;;;2.73;87.94;102847.78;5071790;28;20080;-81
2022/01/20 08:43:11;;;;;;;16.77;3.13;;;;;;;2.72;88.54;102846.88;5077474;28;20040;-81
2022/01/20 08:45:38;;;;;;;24.80;5.47;;;;;;;2.73;88.79;102847.78;5077061;28;20021;-80
2022/01/20 08:48:04;;;;;;;23.30;3.10;;;;;;;2.72;88.75;102856.25;5078249;28;20021;-81
2022/01/20 08:50:31;;;;;;;15.57;3.67;;;;;;;2.73;88.93;102852.94;5084382;28;20166;-81
2022/01/20 08:52:58;;;;;;;18.27;3.13;;;;;;;2.74;88.88;102867.59;5084679;28;20040;-80
2022/01/20 08:55:26;;;;;;;22.23;3.28;;;;;;;2.75;89.05;102864.25;5073481;28;20021;-81
2022/01/20 08:57:52;;;;;;;20.17;3.20;;;;;;;2.75;88.92;102870.31;5083388;28;20031;-81
2022/01/20 09:00:19;;;;;;;20.08;2.90;;;;;;;2.77;88.59;102862.72;5078669;28;20020;-81
2022/01/20 09:02:44;;;;;;;15.88;3.38;;;;;;;2.79;88.54;102863.75;5065965;28;20175;-81
2022/01/20 09:05:10;;;;;;;19.70;2.65;;;;;;;2.83;87.80;102872.66;5068839;28;20072;-81
2022/01/20 09:07:35;;;;;;;24.90;3.03;;;;;;;3.04;88.44;102876.19;5074158;28;20309;-81
2022/01/20 09:10:04;;;;;;;18.23;2.90;;;;;;;3.19;87.20;102879.22;5078372;28;20052;-81
2022/01/20 09:17:42;;;;;;;17.63;2.20;;;;;;;3.11;87.02;102899.13;5083836;28;20027;-81
2022/01/20 09:20:08;;;;;;;13.25;2.45;;;;;;;3.08;86.89;102906.59;5068909;28;21407;-81
2022/01/20 09:22:34;;;;;;;16.35;2.60;;;;;;;3.06;87.35;102900.44;5070698;28;20271;-81
2022/01/20 09:24:59;;;;;;;13.75;2.00;;;;;;;3.05;86.60;102898.59;5084352;28;20027;-81
2022/01/20 09:27:24;;;;;;;13.45;2.28;;;;;;;3.05;86.91;102898.59;5084531;28;20024;-81
2022/01/20 09:29:50;;;;;;;14.68;3.03;;;;;;;3.05;86.62;102898.59;5075444;28;20278;-81
2022/01/20 09:32:17;;;;;;;14.45;2.10;;;;;;;3.04;87.11;102883.91;5078282;28;20066;-81
2022/01/20 09:34:43;;;;;;;12.27;2.17;;;;;;;3.01;86.33;102891.38;5080080;28;20008;-81
2022/01/20 09:37:09;;;;;;;18.40;2.38;;;;;;;3.00;86.35;102889.56;5077291;28;20016;-81
2022/01/20 09:39:37;;;;;;;17.45;2.78;;;;;;;2.98;86.44;102894.59;5074117;28;20370;-81
2022/01/20 09:42:03;;;;;;;18.75;2.53;;;;;;;3.03;87.06;102892.44;5074483;28;20101;-81
2022/01/20 09:44:28;;;;;;;18.45;2.30;;;;;;;3.07;87.46;102881.59;5069765;28;20009;-69
2022/01/20 09:46:54;;;;;;;17.20;3.17;;;;;;;3.15;87.76;102885.75;5076097;28;20027;-69
2022/01/20 09:49:19;;;;;;;19.45;2.88;;;;;;;3.24;88.36;102877.91;5077245;28;20302;-69
2022/01/20 09:51:44;;;;;;;14.82;2.00;;;;;;;3.31;87.87;102888.88;5073866;28;20017;-69
2022/01/20 09:54:11;;;;;;;14.05;1.90;;;;;;;3.36;86.91;102888.38;5073003;28;20267;-69
2022/01/20 09:56:38;;;;;;;16.95;2.65;;;;;;;3.38;86.97;102910.03;5077611;28;20015;-69
2022/01/20 09:59:04;;;;;;;18.17;2.55;;;;;;;3.39;85.74;102910.16;5080982;28;20025;-69
2022/01/20 10:01:38;;;;;;;15.85;3.05;;;;;;;3.40;85.82;102918.78;5081471;28;20036;-69
2022/01/20 10:04:04;;;;;;;12.50;2.63;;;;;;;3.38;85.16;102928.06;5078302;28;20035;-69
2022/01/20 10:06:29;;;;;;;21.20;2.85;;;;;;;3.37;86.02;102944.31;5079229;28;20183;-69
2022/01/20 10:09:02;;;;;;;17.73;3.63;;;;;;;3.36;86.42;102942.47;5078582;28;20251;-69
2022/01/20 10:11:29;;;;;;;12.80;2.42;;;;;;;3.37;87.50;102949.44;5083027;28;20036;-69
2022/01/20 10:14:00;;;;;;;15.80;2.92;;;;;;;3.39;85.75;102945.31;5082770;28;20036;-69
2022/01/20 10:16:25;;;;;;;26.83;2.95;;;;;;;3.38;85.66;102935.81;5078505;28;20024;-69
2022/01/20 10:18:57;;;;;;;16.00;2.65;;;;;;;3.38;85.32;102947.00;5069949;28;20156;-69
2022/01/20 10:21:38;;;;;;;13.13;2.22;;;;;;;3.40;84.96;102945.44;5077602;28;20242;-69
2022/01/20 10:24:06;;;;;;;17.48;2.60;;;;;;;3.45;86.06;102949.34;5079525;28;20290;-69
2022/01/20 10:26:32;;;;;;;15.85;2.92;;;;;;;3.49;86.37;102953.09;5072127;28;20272;-69
2022/01/20 10:29:06;;;;;;;15.98;2.78;;;;;;;3.50;86.15;102961.72;5076798;28;20293;-69
2022/01/20 10:31:31;;;;;;;22.80;3.85;;;;;;;3.52;85.40;102955.03;5073067;28;20054;-69
2022/01/20 10:33:57;;;;;;;15.70;2.60;;;;;;;3.52;84.99;102955.94;5079145;28;20036;-69
2022/01/20 10:36:22;;;;;;;22.98;2.88;;;;;;;3.77;82.81;102968.38;5082515;28;20130;-69
2022/01/20 10:38:53;;;;;;;14.88;2.40;;;;;;;4.21;82.38;102960.88;5080788;28;20070;-69
2022/01/20 10:41:27;;;;;;;17.35;3.22;;;;;;;4.52;80.84;102961.75;5073640;28;20020;-69
2022/01/20 10:44:02;;;;;;;16.05;2.45;;;;;;;4.64;80.48;102971.31;5081575;28;20279;-69
2022/01/20 10:46:27;;;;;;;20.42;3.80;;;;;;;4.69;78.55;102969.97;5081297;28;20178;-69
2022/01/20 10:49:00;;;;;;;16.67;2.63;;;;;;;4.76;80.16;102973.97;5074645;28;20024;-69
2022/01/20 10:51:26;;;;;;;16.27;2.55;;;;;;;4.69;80.03;102976.06;5075317;28;20070;-69
2022/01/20 10:54:05;;;;;;;19.50;2.88;;;;;;;4.57;80.61;102974.16;5070233;28;20024;-69
2022/01/20 10:56:30;;;;;;;20.27;2.85;;;;;;;4.44;78.73;102972.22;5081317;28;20024;-69
2022/01/20 10:59:06;;;;;;;20.88;3.17;;;;;;;4.34;79.53;102970.56;5081361;28;20166;-69
2022/01/20 11:01:31;;;;;;;16.65;2.58;;;;;;;4.27;79.33;102969.16;5077138;28;20024;-69
2022/01/20 11:03:58;;;;;;;14.48;1.95;;;;;;;4.22;80.10;102965.28;5083151;28;20156;-69
2022/01/20 11:06:23;;;;;;;24.02;3.63;;;;;;;4.19;78.90;102965.03;5079817;28;20013;-69
2022/01/20 11:08:50;;;;;;;16.20;2.10;;;;;;;4.16;78.33;102962.19;5084768;28;20016;-69
2022/01/20 11:11:15;;;;;;;16.38;2.25;;;;;;;4.14;79.04;102974.03;5084300;28;20166;-69
2022/01/20 11:13:41;;;;;;;14.18;2.30;;;;;;;4.12;79.11;102973.91;5086145;28;20290;-69
2022/01/20 11:16:07;;;;;;;24.25;2.63;;;;;;;4.13;79.50;102977.41;5083606;28;20081;-69
2022/01/20 11:18:32;;;;;;;13.27;2.08;;;;;;;4.12;79.49;102980.78;5082135;28;20054;-69
2022/01/20 11:20:59;;;;;;;15.55;3.33;;;;;;;4.12;80.02;102970.44;5080410;28;20031;-69
2022/01/20 11:23:35;;;;;;;17.10;2.58;;;;;;;4.15;80.32;102970.69;5088291;28;20196;-69
2022/01/20 11:26:03;;;;;;;20.02;3.20;;;;;;;4.18;80.56;102983.84;5084587;28;20160;-69
2022/01/20 11:28:29;;;;;;;18.27;2.90;;;;;;;4.24;80.53;102973.16;5084423;28;20044;-69
2022/01/20 11:31:04;;;;;;;13.15;2.47;;;;;;;4.30;81.02;102969.41;5084269;28;20025;-69
2022/01/20 11:33:40;;;;;;;17.80;2.83;;;;;;;4.33;79.87;102974.81;5080226;28;20031;-69
2022/01/20 11:36:09;;;;;;;18.88;2.42;;;;;;;4.32;79.22;102962.69;5077666;28;20028;-69
2022/01/20 11:38:48;;;;;;;17.95;2.92;;;;;;;4.31;79.08;102963.44;5086172;28;20009;-69
2022/01/20 11:41:16;;;;;;;22.95;3.38;;;;;;;4.31;80.29;102959.97;5087057;28;20013;-78
2022/01/20 11:43:45;;;;;;;18.63;3.13;;;;;;;4.31;80.36;102960.88;5083545;28;20138;-78
2022/01/20 11:46:18;;;;;;;15.38;2.53;;;;;;;4.32;80.04;102961.81;5080768;28;20094;-77
2022/01/20 11:48:51;;;;;;;14.48;2.88;;;;;;;4.31;79.29;102966.03;5082174;28;20091;-77
2022/01/20 11:51:19;;;;;;;21.33;2.30;;;;;;;4.29;77.90;102959.84;5071133;28;20286;-77
2022/01/20 11:53:55;;;;;;;15.52;2.55;;;;;;;4.27;78.75;102953.69;5072858;28;20264;-78
2022/01/20 11:56:47;;;;;;;16.25;2.60;;;;;;;4.26;78.75;102949.28;5078112;28;20052;-77
2022/01/20 11:59:14;;;;;;;15.55;2.35;;;;;;;4.24;78.40;102949.94;5066929;28;20040;-77
2022/01/20 12:01:55;;;;;;;16.80;2.83;;;;;;;4.25;79.22;102960.38;5081224;28;20024;-77
2022/01/20 12:04:35;;;;;;;10.43;2.10;;;;;;;4.25;79.90;102968.13;5075713;28;20027;-77
2022/01/20 12:07:02;;;;;;;14.50;2.15;;;;;;;4.23;78.94;102961.00;5085540;28;20222;-77
2022/01/20 12:09:30;;;;;;;16.15;2.45;;;;;;;4.20;78.50;102958.19;5083421;28;20088;-77
2022/01/20 12:11:56;;;;;;;10.30;2.07;;;;;;;4.23;79.61;102948.09;5079692;28;20032;-78
2022/01/20 12:14:35;;;;;;;16.50;2.53;;;;;;;4.24;77.94;102937.91;5076730;28;20043;-77
2022/01/20 12:17:11;;;;;;;18.80;2.65;;;;;;;4.27;79.20;102932.13;5086356;28;20020;-77
2022/01/20 12:19:36;;;;;;;13.40;2.10;;;;;;;4.37;79.06;102938.94;5078502;28;20016;-78
2022/01/20 12:22:04;;;;;;;20.08;2.50;;;;;;;4.42;77.42;102937.63;5085251;28;20020;-77
2022/01/20 12:24:29;;;;;;;12.50;2.40;;;;;;;4.43;75.67;102926.53;5091090;28;20318;-78
2022/01/20 12:26:54;;;;;;;11.20;1.95;;;;;;;4.39;74.90;102922.81;5084759;28;20090;-78
2022/01/20 12:29:20;;;;;;;15.30;3.13;;;;;;;4.36;75.36;102927.72;5084632;28;20041;-78
2022/01/20 12:31:54;;;;;;;15.13;2.35;;;;;;;4.34;76.07;102935.34;5085034;28;20016;-78
2022/01/20 12:34:21;;;;;;;13.90;2.03;;;;;;;4.33;77.36;102936.13;5081470;28;20016;-78
2022/01/20 12:36:58;;;;;;;18.90;2.88;;;;;;;4.31;78.63;102935.06;5075694;28;20027;-77